Terminal Aerodrome Forecast
Issued by NWS Portland, OR

Home | Current Version | Previous Version | Text Only | Print | Product List | Glossary On
Versions: 1 2 3 4 5 6 7 8 9 10 11 12 13 14
000
FTUS46 KPQR 011120
TAFEUG
TAF
KEUG 011120Z 0112/0212 16007KT P6SM -SHRA BKN035 OVC060
     FM011700 19014G22KT P6SM -SHRA BKN040 OVC050
     FM020200 19006KT P6SM -SHRA BKN040 OVC060=

USA.gov is the U.S. government's official web portal to all federal, state and local government web resources and services.